Time;durP1;ratioP1;P1;durP2;ratioP2;P2;SDS_P1;SDS_P2;PMS_P1;PMS_P2;Temp;Humidity;BMP_temperature;BMP_pressure;BME280_temperature;BME280_humidity;BME280_pressure;Samples;Min_cycle;Max_cycle;Signal;HPM_P1;HPM_P2
2022/09/23 00:01:17;;;;;;;5.87;3.87;;;;;;;12.80;100.00;99792.00;1715371;83;21725;-56
2022/09/23 00:03:47;;;;;;;5.90;3.70;;;;;;;12.84;100.00;99784.05;1717737;83;21601;-65
2022/09/23 00:06:20;;;;;;;6.80;4.23;;;;;;;12.82;100.00;99771.67;1721420;83;21967;-56
2022/09/23 00:08:50;;;;;;;4.67;3.53;;;;;;;12.80;100.00;99769.77;1721790;83;21391;-56
2022/09/23 00:11:23;;;;;;;4.97;3.25;;;;;;;12.78;100.00;99767.88;1721822;83;22156;-56
2022/09/23 00:13:56;;;;;;;4.60;3.50;;;;;;;12.78;100.00;99766.57;1721618;83;21559;-61
2022/09/23 00:16:27;;;;;;;6.23;3.17;;;;;;;12.80;100.00;99768.45;1722182;83;21667;-57
2022/09/23 00:18:55;;;;;;;5.43;3.83;;;;;;;12.80;100.00;99768.45;1722118;83;21997;-55
2022/09/23 00:21:23;;;;;;;6.33;3.50;;;;;;;12.84;100.00;99763.13;1722505;83;21740;-55
2022/09/23 00:23:51;;;;;;;6.00;3.80;;;;;;;12.81;100.00;99763.55;1721713;83;21780;-64
2022/09/23 00:26:19;;;;;;;8.03;3.73;;;;;;;12.80;100.00;99761.12;1722297;83;22515;-55
2022/09/23 00:28:47;;;;;;;7.00;2.93;;;;;;;12.82;100.00;99757.30;1721620;83;21908;-56
2022/09/23 00:31:18;;;;;;;5.13;2.97;;;;;;;12.82;100.00;99757.30;1722115;83;21816;-55
2022/09/23 00:33:46;;;;;;;5.58;3.35;;;;;;;12.86;100.00;99759.78;1722246;83;21680;-60
2022/09/23 00:36:14;;;;;;;3.93;2.40;;;;;;;12.88;100.00;99759.08;1722391;83;21350;-55
2022/09/23 00:38:43;;;;;;;4.30;2.77;;;;;;;12.88;100.00;99765.63;1722469;83;22171;-57
2022/09/23 00:41:10;;;;;;;4.30;2.73;;;;;;;12.93;100.00;99770.72;1722493;83;22110;-56
2022/09/23 00:43:51;;;;;;;4.70;2.87;;;;;;;12.98;100.00;99774.81;1722103;83;21716;-55
2022/09/23 00:46:35;;;;;;;3.80;2.93;;;;;;;13.02;100.00;99782.53;1722943;83;21740;-56
2022/09/23 00:49:21;;;;;;;5.30;3.07;;;;;;;13.00;100.00;99791.12;1722770;83;21274;-64
2022/09/23 00:51:53;;;;;;;4.57;3.13;;;;;;;13.03;100.00;99786.27;1722401;83;22208;-65
2022/09/23 00:54:21;;;;;;;4.40;3.10;;;;;;;12.97;100.00;99783.17;1722402;83;21613;-59
2022/09/23 00:56:48;;;;;;;5.03;3.30;;;;;;;12.94;100.00;99781.48;1722342;83;21630;-55
2022/09/23 00:59:17;;;;;;;3.80;2.80;;;;;;;12.90;100.00;99777.17;1721799;83;22237;-56
2022/09/23 01:01:44;;;;;;;4.40;3.20;;;;;;;12.89;100.00;99758.06;1722037;83;21720;-55
2022/09/23 01:04:11;;;;;;;4.77;3.43;;;;;;;12.85;100.00;99760.80;1718735;82;21658;-56
2022/09/23 01:06:38;;;;;;;5.17;3.13;;;;;;;12.88;100.00;99774.78;1715502;83;22468;-58
2022/09/23 01:09:05;;;;;;;5.20;3.27;;;;;;;12.89;100.00;99766.42;1714882;83;22174;-62
2022/09/23 01:11:48;;;;;;;4.60;3.40;;;;;;;12.89;100.00;99764.60;1715095;83;21679;-57
2022/09/23 01:14:47;;;;;;;7.50;3.10;;;;;;;12.90;100.00;99758.34;1658945;85;21715;-59
2022/09/23 01:17:19;;;;;;;5.03;2.63;;;;;;;12.79;100.00;99747.75;1685212;84;21762;-61
2022/09/23 01:20:19;;;;;;;3.17;2.20;;;;;;;12.82;100.00;99727.72;1717942;83;21609;-61
2022/09/23 01:23:40;;;;;;;6.00;3.03;;;;;;;12.74;100.00;99720.92;1718693;83;21657;-60
2022/09/23 01:26:19;;;;;;;6.90;3.47;;;;;;;12.69;100.00;99723.38;1718729;83;22188;-60
2022/09/23 01:29:24;;;;;;;4.30;2.60;;;;;;;12.54;100.00;99722.34;1717182;83;21764;-58
2022/09/23 01:32:08;;;;;;;4.30;2.37;;;;;;;12.46;100.00;99713.41;1718209;83;21630;-62
2022/09/23 01:35:06;;;;;;;3.53;2.53;;;;;;;12.35;100.00;99707.05;1718158;83;21502;-63
2022/09/23 01:38:01;;;;;;;3.53;2.30;;;;;;;12.30;100.00;99711.28;1690954;83;22132;-59
2022/09/23 01:40:46;;;;;;;3.57;2.53;;;;;;;12.17;100.00;99696.47;1718491;83;22140;-58
2022/09/23 01:43:21;;;;;;;5.03;2.90;;;;;;;11.92;100.00;99680.16;1718761;83;22344;-57
2022/09/23 01:45:53;;;;;;;4.67;2.70;;;;;;;11.87;100.00;99685.71;1718211;83;21535;-57
2022/09/23 01:48:25;;;;;;;4.70;2.83;;;;;;;11.87;100.00;99685.71;1717951;83;21470;-63
2022/09/23 01:51:06;;;;;;;4.60;2.40;;;;;;;11.83;100.00;99694.45;1675530;85;21618;-58
2022/09/23 01:53:58;;;;;;;7.55;2.80;;;;;;;11.83;100.00;99688.41;1685590;83;21410;-59
2022/09/23 01:56:33;;;;;;;6.30;3.10;;;;;;;11.78;100.00;99682.97;1715741;83;21664;-58
2022/09/23 01:59:12;;;;;;;6.40;3.00;;;;;;;11.78;100.00;99682.97;1715222;83;21408;-58
2022/09/23 02:01:47;;;;;;;6.50;2.87;;;;;;;11.74;100.00;99679.17;1714422;83;22066;-60
2022/09/23 02:04:24;;;;;;;4.67;2.97;;;;;;;11.73;100.00;99675.77;1661296;85;21815;-59
2022/09/23 02:07:06;;;;;;;5.50;2.67;;;;;;;11.72;100.00;99684.61;1652823;85;21557;-58
2022/09/23 02:09:36;;;;;;;5.28;2.90;;;;;;;11.72;100.00;99684.61;1651857;86;26049;-59
2022/09/23 02:12:07;;;;;;;3.97;2.43;;;;;;;11.72;100.00;99688.52;1627653;86;21587;-63
2022/09/23 02:14:56;;;;;;;4.47;2.75;;;;;;;11.72;100.00;99688.52;1652242;86;21746;-58
2022/09/23 02:17:31;;;;;;;4.80;2.70;;;;;;;11.71;100.00;99693.97;1652064;86;21333;-58
2022/09/23 02:20:02;;;;;;;3.87;2.33;;;;;;;11.74;100.00;99693.02;1651630;86;21482;-59
2022/09/23 02:22:39;;;;;;;3.72;2.45;;;;;;;11.74;100.00;99693.02;1632019;87;22478;-59
2022/09/23 02:25:08;;;;;;;3.97;2.27;;;;;;;11.75;100.00;99693.85;1693583;84;21030;-58
2022/09/23 02:27:52;;;;;;;3.47;1.90;;;;;;;11.73;100.00;99694.55;1693211;84;21817;-62
2022/09/23 02:30:25;;;;;;;4.17;1.63;;;;;;;11.76;100.00;99701.98;1692303;84;21457;-58
2022/09/23 02:32:57;;;;;;;3.70;1.90;;;;;;;11.77;100.00;99697.05;1693467;84;21817;-58
2022/09/23 02:35:36;;;;;;;3.57;2.20;;;;;;;11.77;100.00;99697.05;1693110;84;21595;-63
2022/09/23 02:38:35;;;;;;;4.13;2.17;;;;;;;11.73;100.00;99691.42;1693314;84;22276;-63
2022/09/23 02:41:31;;;;;;;4.23;2.17;;;;;;;11.77;100.00;99696.53;1693058;83;21309;-58
2022/09/23 02:44:08;;;;;;;3.03;1.60;;;;;;;11.73;100.00;99701.88;1692901;84;21518;-58
2022/09/23 02:46:36;;;;;;;5.03;2.10;;;;;;;11.61;100.00;99708.73;1693091;84;21546;-59
2022/09/23 02:49:14;;;;;;;3.47;2.20;;;;;;;11.61;100.00;99708.73;1693131;84;21542;-59
2022/09/23 02:51:42;;;;;;;4.70;2.53;;;;;;;11.63;100.00;99731.02;1693633;84;21534;-58
2022/09/23 02:54:13;;;;;;;4.10;2.00;;;;;;;11.63;100.00;99731.02;1693673;84;21411;-64
2022/09/23 02:56:41;;;;;;;4.90;2.07;;;;;;;11.59;100.00;99730.30;1692922;84;21482;-58
2022/09/23 02:59:08;;;;;;;3.20;2.00;;;;;;;11.59;100.00;99730.30;1693436;84;21949;-60
2022/09/23 03:01:47;;;;;;;3.60;2.00;;;;;;;11.57;100.00;99715.36;1693455;84;22256;-59
2022/09/23 03:04:19;;;;;;;4.13;2.17;;;;;;;11.57;100.00;99715.36;1675556;83;21912;-64
2022/09/23 03:07:09;;;;;;;5.23;2.93;;;;;;;11.58;100.00;99723.48;1707969;83;21485;-62
2022/09/23 03:10:08;;;;;;;4.28;2.20;;;;;;;11.56;100.00;99732.03;1708672;83;21201;-59
2022/09/23 03:13:04;;;;;;;3.17;2.00;;;;;;;11.54;100.00;99737.95;1708492;83;21322;-58
2022/09/23 03:16:01;;;;;;;3.60;2.37;;;;;;;11.57;100.00;99736.24;1708315;83;21756;-61
2022/09/23 03:18:39;;;;;;;6.60;2.13;;;;;;;11.43;100.00;99726.30;1705987;82;21788;-58
2022/09/23 03:21:44;;;;;;;3.43;1.93;;;;;;;11.41;100.00;99727.02;1707881;83;21445;-65
2022/09/23 03:24:13;;;;;;;4.40;2.43;;;;;;;11.32;100.00;99738.64;1708197;83;21254;-60
2022/09/23 03:26:39;;;;;;;4.63;2.90;;;;;;;11.32;100.00;99750.38;1708074;83;21682;-59
2022/09/23 03:29:08;;;;;;;4.30;2.70;;;;;;;11.30;100.00;99753.20;1708771;83;22103;-60
2022/09/23 03:31:35;;;;;;;4.07;3.03;;;;;;;11.29;100.00;99746.39;1709037;83;21286;-58
2022/09/23 03:34:06;;;;;;;4.83;2.63;;;;;;;11.33;100.00;99737.16;1683275;83;22567;-58
2022/09/23 03:36:50;;;;;;;5.72;2.72;;;;;;;11.33;100.00;99735.05;1708295;83;21286;-59
2022/09/23 03:39:26;;;;;;;5.60;3.13;;;;;;;11.30;100.00;99733.64;1708409;83;21018;-58
2022/09/23 03:41:56;;;;;;;5.27;2.90;;;;;;;11.31;100.00;99731.83;1707775;83;21262;-59
2022/09/23 03:44:23;;;;;;;7.73;4.13;;;;;;;11.27;100.00;99736.64;1708596;83;22023;-58
2022/09/23 03:46:50;;;;;;;4.97;2.80;;;;;;;11.27;100.00;99744.47;1708597;83;21849;-58
2022/09/23 03:49:27;;;;;;;5.80;3.40;;;;;;;11.28;100.00;99750.48;1708485;83;21254;-58
2022/09/23 03:51:54;;;;;;;7.20;3.10;;;;;;;11.24;100.00;99764.42;1730237;82;21340;-63
2022/09/23 03:54:22;;;;;;;5.63;3.67;;;;;;;11.28;100.00;99767.44;1708062;83;21813;-60
2022/09/23 03:56:49;;;;;;;8.57;3.87;;;;;;;11.28;100.00;99767.44;1708830;83;21537;-59
2022/09/23 03:59:16;;;;;;;6.77;3.57;;;;;;;11.40;100.00;99758.01;1709094;83;21746;-58
2022/09/23 04:01:44;;;;;;;7.47;3.77;;;;;;;11.33;100.00;99753.31;1709338;83;21863;-58
2022/09/23 04:04:11;;;;;;;7.27;3.77;;;;;;;11.33;100.00;99754.11;1708334;83;21198;-63
2022/09/23 04:06:39;;;;;;;5.53;3.73;;;;;;;11.35;100.00;99752.59;1718798;83;21754;-59
2022/09/23 04:09:06;;;;;;;4.80;3.43;;;;;;;11.52;100.00;99750.41;1718734;83;21370;-59
2022/09/23 04:11:34;;;;;;;9.77;4.10;;;;;;;11.47;100.00;99753.59;1718425;83;21298;-57
2022/09/23 04:14:01;;;;;;;7.30;4.07;;;;;;;11.47;100.00;99753.59;1718271;83;21247;-63
2022/09/23 04:16:28;;;;;;;7.47;4.00;;;;;;;11.48;100.00;99753.09;1718129;83;21294;-60
2022/09/23 04:18:55;;;;;;;6.37;4.10;;;;;;;11.42;100.00;99752.91;1719131;83;21383;-58
2022/09/23 04:21:23;;;;;;;6.70;4.03;;;;;;;11.53;100.00;99745.48;1719100;83;21460;-58
2022/09/23 04:23:50;;;;;;;5.83;3.90;;;;;;;11.51;100.00;99743.05;1719050;83;21462;-58
2022/09/23 04:26:18;;;;;;;7.33;3.80;;;;;;;11.44;100.00;99730.54;1718045;83;21345;-58
2022/09/23 04:28:45;;;;;;;4.73;3.13;;;;;;;11.44;100.00;99730.54;1719307;83;22029;-58
2022/09/23 04:31:12;;;;;;;4.37;2.73;;;;;;;11.29;100.00;99717.69;1719048;83;21955;-57
2022/09/23 04:33:40;;;;;;;5.67;3.20;;;;;;;11.37;100.00;99720.09;1719272;83;21186;-57
2022/09/23 04:36:07;;;;;;;3.73;2.60;;;;;;;11.37;100.00;99720.09;1718986;83;21895;-61
2022/09/23 04:38:35;;;;;;;6.47;3.10;;;;;;;11.38;100.00;99723.50;1718080;83;21510;-61
2022/09/23 04:41:03;;;;;;;4.40;2.97;;;;;;;11.32;100.00;99722.48;1718620;83;21590;-58
2022/09/23 04:43:30;;;;;;;4.70;2.73;;;;;;;11.33;100.00;99713.67;1718724;83;21384;-58
2022/09/23 04:46:02;;;;;;;4.33;2.60;;;;;;;11.36;100.00;99713.25;1718595;83;21338;-58
2022/09/23 04:48:29;;;;;;;4.30;2.83;;;;;;;11.43;100.00;99708.03;1718266;83;21284;-63
2022/09/23 04:51:06;;;;;;;6.30;3.10;;;;;;;11.51;100.00;99696.58;1718391;83;21899;-57
2022/09/23 04:53:35;;;;;;;5.50;2.90;;;;;;;11.48;100.00;99695.20;1718436;83;21300;-57
2022/09/23 04:56:24;;;;;;;5.03;2.80;;;;;;;11.45;100.00;99698.20;1718258;83;21770;-62
2022/09/23 04:58:51;;;;;;;3.90;2.70;;;;;;;11.49;100.00;99692.88;1659472;85;21838;-58
2022/09/23 05:01:25;;;;;;;5.13;2.60;;;;;;;11.58;100.00;99697.38;1718663;83;21317;-57
2022/09/23 05:03:55;;;;;;;4.47;2.83;;;;;;;11.56;100.00;99704.63;1718294;83;21438;-59
2022/09/23 05:06:22;;;;;;;3.93;2.87;;;;;;;11.59;100.00;99702.89;1719408;83;21753;-58
2022/09/23 05:08:54;;;;;;;5.50;2.63;;;;;;;11.54;100.00;99698.28;1719106;83;21521;-58
2022/09/23 05:11:23;;;;;;;3.90;2.50;;;;;;;11.54;100.00;99698.28;1719088;83;21564;-57
2022/09/23 05:13:52;;;;;;;4.63;2.63;;;;;;;11.57;100.00;99701.00;1719044;83;21956;-61
2022/09/23 05:16:19;;;;;;;4.77;2.87;;;;;;;11.64;100.00;99695.27;1719120;83;21573;-58
2022/09/23 05:18:47;;;;;;;4.33;2.50;;;;;;;11.63;100.00;99691.03;1719195;83;21599;-58
2022/09/23 05:21:17;;;;;;;5.40;2.60;;;;;;;11.61;100.00;99694.37;1719396;83;21475;-58
2022/09/23 05:23:53;;;;;;;5.73;3.00;;;;;;;11.66;100.00;99712.83;1718832;83;21450;-59
2022/09/23 05:26:19;;;;;;;4.37;2.87;;;;;;;11.66;100.00;99712.83;1718734;83;21762;-58
2022/09/23 05:28:46;;;;;;;4.77;2.50;;;;;;;11.67;100.00;99719.17;1718718;83;21507;-58
2022/09/23 05:31:16;;;;;;;3.40;2.20;;;;;;;11.61;100.00;99714.75;1718581;83;21399;-58
2022/09/23 05:33:45;;;;;;;4.13;2.33;;;;;;;11.62;100.00;99712.42;1718042;83;21664;-61
2022/09/23 05:36:12;;;;;;;4.03;2.43;;;;;;;11.58;100.00;99690.85;1718443;83;21677;-58
2022/09/23 05:38:39;;;;;;;4.27;2.27;;;;;;;11.56;100.00;99706.73;1718484;83;21458;-58
2022/09/23 05:41:09;;;;;;;4.10;2.37;;;;;;;11.56;100.00;99706.73;1718298;83;21494;-58
2022/09/23 05:43:36;;;;;;;4.50;2.30;;;;;;;11.60;100.00;99702.70;1718024;83;21308;-58
2022/09/23 05:46:12;;;;;;;5.17;2.07;;;;;;;11.58;100.00;99707.31;1717990;83;21553;-58
2022/09/23 05:48:40;;;;;;;3.23;1.93;;;;;;;11.57;100.00;99719.27;1718741;83;21498;-58
2022/09/23 05:51:11;;;;;;;3.40;1.87;;;;;;;11.57;100.00;99719.27;1718124;83;21499;-58
2022/09/23 05:53:38;;;;;;;3.08;2.15;;;;;;;11.57;100.00;99711.45;1718337;83;21472;-58
2022/09/23 05:56:07;;;;;;;5.03;2.33;;;;;;;11.55;100.00;99722.58;1718779;83;20974;-58
2022/09/23 05:58:35;;;;;;;4.67;2.07;;;;;;;11.55;100.00;99722.58;1718570;83;21759;-58
2022/09/23 06:01:12;;;;;;;3.10;1.87;;;;;;;11.61;100.00;99726.49;1718629;83;21523;-58
2022/09/23 06:03:39;;;;;;;4.17;1.90;;;;;;;11.61;100.00;99726.49;1718151;83;21789;-58
2022/09/23 06:06:07;;;;;;;3.40;1.73;;;;;;;11.65;100.00;99731.61;1717598;83;21709;-58
2022/09/23 06:08:36;;;;;;;3.23;1.90;;;;;;;11.75;100.00;99727.80;1716271;83;22010;-58
2022/09/23 06:11:08;;;;;;;4.13;2.17;;;;;;;11.67;100.00;99726.20;1718370;83;22024;-59
2022/09/23 06:13:37;;;;;;;3.33;1.70;;;;;;;11.67;100.00;99726.20;1717678;83;21577;-57
2022/09/23 06:16:10;;;;;;;3.40;1.57;;;;;;;11.65;100.00;99726.89;1717944;83;21225;-58
2022/09/23 06:18:41;;;;;;;2.97;1.50;;;;;;;11.60;100.00;99720.98;1718303;83;21543;-58
2022/09/23 06:21:12;;;;;;;3.53;1.70;;;;;;;11.68;100.00;99719.97;1718135;83;21483;-58
2022/09/23 06:23:40;;;;;;;2.70;1.55;;;;;;;11.68;100.00;99724.68;1718480;83;21592;-63
2022/09/23 06:26:11;;;;;;;4.00;1.83;;;;;;;11.75;100.00;99718.66;1718333;83;20997;-57
2022/09/23 06:28:41;;;;;;;3.93;1.70;;;;;;;11.81;100.00;99717.31;1718298;83;21817;-57
2022/09/23 06:31:14;;;;;;;3.20;1.90;;;;;;;11.56;100.00;99721.09;1717623;83;22063;-62
2022/09/23 06:33:43;;;;;;;4.20;2.07;;;;;;;11.56;100.00;99721.09;1718078;83;21768;-63
2022/09/23 06:36:12;;;;;;;7.80;2.10;;;;;;;11.65;100.00;99724.28;1718726;83;22657;-57
2022/09/23 06:38:40;;;;;;;3.77;1.70;;;;;;;11.67;100.00;99717.06;1718838;83;21478;-57
2022/09/23 06:41:08;;;;;;;3.47;1.63;;;;;;;11.79;100.00;99707.59;1717910;83;22112;-57
2022/09/23 06:43:35;;;;;;;2.63;1.30;;;;;;;11.79;100.00;99707.59;1718110;83;21547;-60
2022/09/23 06:46:03;;;;;;;3.23;1.77;;;;;;;11.75;100.00;99710.83;1718234;83;23127;-56
2022/09/23 06:48:34;;;;;;;5.37;2.00;;;;;;;11.75;100.00;99710.83;1718531;83;21507;-57
2022/09/23 06:51:03;;;;;;;3.73;1.57;;;;;;;11.73;100.00;99704.48;1717986;83;21402;-58
2022/09/23 06:53:33;;;;;;;3.83;1.70;;;;;;;11.71;100.00;99707.02;1717943;83;22469;-59
2022/09/23 06:56:06;;;;;;;3.17;1.77;;;;;;;11.75;100.00;99710.83;1718360;83;22328;-57
2022/09/23 06:58:34;;;;;;;4.30;1.60;;;;;;;11.76;100.00;99698.06;1718873;83;22163;-58
2022/09/23 07:01:08;;;;;;;4.63;2.00;;;;;;;11.76;100.00;99698.06;1717737;83;21861;-57
2022/09/23 07:03:35;;;;;;;3.27;1.70;;;;;;;11.75;100.00;99702.99;1718460;83;22104;-57
2022/09/23 07:06:03;;;;;;;3.03;1.80;;;;;;;11.78;100.00;99706.00;1718328;83;21665;-57
2022/09/23 07:08:32;;;;;;;3.60;1.53;;;;;;;11.83;100.00;99704.91;1718607;83;22140;-58
2022/09/23 07:11:04;;;;;;;3.23;1.63;;;;;;;11.83;100.00;99704.91;1717983;83;21592;-60
2022/09/23 07:13:32;;;;;;;2.70;1.50;;;;;;;11.84;100.00;99703.09;1718230;83;22107;-57
2022/09/23 07:16:00;;;;;;;2.00;1.17;;;;;;;11.98;100.00;99695.52;1718740;83;22084;-57
2022/09/23 07:18:30;;;;;;;2.87;1.60;;;;;;;11.99;100.00;99688.48;1718751;83;22134;-57
2022/09/23 07:20:59;;;;;;;4.03;1.97;;;;;;;11.97;100.00;99685.27;1718243;83;21475;-60
2022/09/23 07:23:26;;;;;;;3.20;1.80;;;;;;;12.05;100.00;99688.98;1715118;82;21405;-57
2022/09/23 07:25:57;;;;;;;4.03;1.60;;;;;;;11.91;100.00;99679.86;1718651;83;21637;-58
2022/09/23 07:28:26;;;;;;;3.80;1.80;;;;;;;12.05;100.00;99687.67;1693375;83;22212;-58
2022/09/23 07:30:53;;;;;;;2.90;1.57;;;;;;;12.03;100.00;99694.39;1717927;83;21518;-62
2022/09/23 07:33:20;;;;;;;3.93;2.27;;;;;;;12.03;100.00;99694.39;1718247;83;21449;-57
2022/09/23 07:35:49;;;;;;;2.70;1.77;;;;;;;12.02;100.00;99697.23;1718237;83;21628;-57
2022/09/23 07:38:16;;;;;;;6.03;4.30;;;;;;;12.06;100.00;99690.07;1718790;83;21671;-58
2022/09/23 07:40:43;;;;;;;4.33;2.50;;;;;;;12.19;100.00;99697.05;1718255;83;21586;-57
2022/09/23 07:43:12;;;;;;;3.43;2.23;;;;;;;12.23;100.00;99689.09;1717771;83;21638;-58
2022/09/23 07:45:42;;;;;;;3.03;1.90;;;;;;;12.26;100.00;99690.49;1718804;83;22114;-57
2022/09/23 07:48:08;;;;;;;3.10;1.93;;;;;;;12.27;100.00;99685.05;1718121;82;21481;-57
2022/09/23 07:50:37;;;;;;;2.70;1.67;;;;;;;12.27;100.00;99691.58;1717257;83;21474;-57
2022/09/23 07:53:07;;;;;;;3.50;1.80;;;;;;;12.39;100.00;99693.86;1717599;83;21684;-59
2022/09/23 07:55:34;;;;;;;3.80;2.13;;;;;;;12.37;100.00;99695.06;1718580;83;22485;-57
2022/09/23 07:58:01;;;;;;;5.27;2.60;;;;;;;12.44;100.00;99698.45;1718371;83;21692;-57
2022/09/23 08:00:29;;;;;;;3.47;1.90;;;;;;;12.52;100.00;99689.06;1718904;83;22078;-63
2022/09/23 08:02:56;;;;;;;3.87;2.77;;;;;;;12.52;100.00;99689.06;1718407;83;21611;-58
2022/09/23 08:05:23;;;;;;;3.50;2.60;;;;;;;12.63;100.00;99696.75;1719032;83;21651;-57
2022/09/23 08:07:51;;;;;;;4.13;1.83;;;;;;;12.67;100.00;99699.24;1707252;83;21551;-57
2022/09/23 08:10:19;;;;;;;3.23;1.97;;;;;;;12.64;100.00;99706.19;1709497;83;21629;-59
2022/09/23 08:12:47;;;;;;;2.83;1.80;;;;;;;12.68;100.00;99707.38;1708093;83;21902;-58
2022/09/23 08:15:16;;;;;;;4.33;2.00;;;;;;;12.68;100.00;99700.83;1708857;83;21758;-57
2022/09/23 08:17:43;;;;;;;3.27;1.67;;;;;;;12.76;100.00;99698.48;1708745;83;21559;-57
2022/09/23 08:20:42;;;;;;;2.53;1.70;;;;;;;12.75;100.00;99693.75;1708987;83;21535;-63
2022/09/23 08:22:39;;;;;;;3.30;2.20;;;;;;;12.75;100.00;99691.14;1711438;82;21760;-58
2022/09/23 08:25:07;;;;;;;3.30;2.10;;;;;;;12.73;100.00;99693.18;1708456;83;21769;-58
2022/09/23 08:27:34;;;;;;;3.23;1.97;;;;;;;12.71;100.00;99690.47;1709333;83;22195;-57
2022/09/23 08:30:01;;;;;;;3.00;1.67;;;;;;;12.69;100.00;99693.78;1709305;83;21680;-57
2022/09/23 08:32:29;;;;;;;2.30;1.40;;;;;;;12.77;100.00;99697.48;1708054;83;21690;-62
2022/09/23 08:34:56;;;;;;;3.13;1.83;;;;;;;12.78;100.00;99694.64;1709228;83;23025;-58
2022/09/23 08:37:23;;;;;;;2.80;1.70;;;;;;;12.91;100.00;99687.20;1709605;83;22112;-57
2022/09/23 08:39:50;;;;;;;3.17;1.73;;;;;;;12.91;100.00;99687.20;1708907;83;20886;-57
2022/09/23 08:42:22;;;;;;;3.13;1.73;;;;;;;12.98;100.00;99693.20;1708645;83;21057;-63
2022/09/23 08:44:52;;;;;;;;;;;;;;;12.94;100.00;99696.45;1710871;83;22096;-58
2022/09/23 08:47:33;;;;;;;4.27;2.03;;;;;;;13.00;100.00;99698.23;1708778;83;20237;-58
2022/09/23 08:50:14;;;;;;;3.20;1.65;;;;;;;13.00;100.00;99699.55;1707570;83;21688;-62
2022/09/23 08:52:51;;;;;;;3.58;1.70;;;;;;;13.08;100.00;99696.66;1708713;83;21065;-57
2022/09/23 08:55:18;;;;;;;3.13;1.90;;;;;;;13.17;100.00;99695.88;1709206;83;21060;-58
2022/09/23 08:58:25;;;;;;;3.20;1.83;;;;;;;13.18;100.00;99691.73;1708440;83;21259;-61
2022/09/23 09:01:27;;;;;;;2.70;1.53;;;;;;;13.18;100.00;99691.73;1709363;83;20977;-57
2022/09/23 09:04:00;;;;;;;3.50;2.05;;;;;;;13.22;100.00;99684.25;1709513;83;21009;-58
2022/09/23 09:06:41;;;;;;;2.90;1.73;;;;;;;13.41;100.00;99679.90;1711619;82;21520;-57
2022/09/23 09:09:25;;;;;;;3.22;2.05;;;;;;;13.47;100.00;99681.16;1717549;83;21312;-58
2022/09/23 09:11:56;;;;;;;5.47;3.40;;;;;;;13.55;100.00;99682.69;1708279;83;21236;-59
2022/09/23 09:14:29;;;;;;;4.47;2.10;;;;;;;13.50;100.00;99679.42;1717464;83;22190;-62
2022/09/23 09:16:59;;;;;;;4.30;2.20;;;;;;;13.44;100.00;99675.55;1717144;83;22052;-58
2022/09/23 09:19:54;;;;;;;4.00;2.50;;;;;;;13.50;100.00;99681.23;1717741;83;21324;-57
2022/09/23 09:22:48;;;;;;;4.03;2.57;;;;;;;13.51;100.00;99679.70;1717439;83;21007;-59
2022/09/23 09:25:48;;;;;;;4.23;2.47;;;;;;;13.45;100.00;99687.61;1718055;83;20930;-58
2022/09/23 09:28:35;;;;;;;3.47;1.93;;;;;;;13.52;100.00;99688.36;1717609;83;21540;-58
2022/09/23 09:31:30;;;;;;;3.47;2.17;;;;;;;13.57;100.00;99694.56;1717720;83;20938;-59
2022/09/23 09:34:40;;;;;;;4.50;2.70;;;;;;;13.54;100.00;99694.19;1716081;82;20935;-58
2022/09/23 09:37:27;;;;;;;5.30;2.40;;;;;;;13.53;100.00;99695.22;1717513;83;21064;-58
2022/09/23 09:39:55;;;;;;;5.00;2.60;;;;;;;13.43;100.00;99702.23;1717288;83;21637;-63
2022/09/23 09:42:28;;;;;;;3.80;2.03;;;;;;;13.42;100.00;99703.77;1716665;83;21520;-59
2022/09/23 09:45:03;;;;;;;3.73;1.87;;;;;;;13.33;100.00;99700.12;1717605;83;21085;-57
2022/09/23 09:48:02;;;;;;;3.87;1.90;;;;;;;13.37;100.00;99692.13;1717306;82;21043;-58
2022/09/23 09:50:50;;;;;;;3.67;1.90;;;;;;;13.49;100.00;99694.05;1717852;83;22125;-57
2022/09/23 09:53:26;;;;;;;2.77;1.80;;;;;;;13.61;100.00;99700.17;1717426;83;21831;-59
2022/09/23 09:56:08;;;;;;;2.67;1.60;;;;;;;13.62;100.00;99695.22;1716922;83;21013;-58
2022/09/23 09:58:53;;;;;;;3.10;1.70;;;;;;;13.63;100.00;99693.67;1717774;83;21677;-58
2022/09/23 10:01:29;;;;;;;3.10;1.73;;;;;;;13.68;100.00;99698.29;1717291;83;21492;-58
2022/09/23 10:04:02;;;;;;;3.53;2.20;;;;;;;13.69;100.00;99703.81;1717818;83;20978;-57
2022/09/23 10:06:34;;;;;;;3.80;2.13;;;;;;;13.76;100.00;99707.17;1716083;83;21243;-60
2022/09/23 10:09:08;;;;;;;;;;;;;;;13.77;100.00;99702.22;1720429;83;21014;-60
2022/09/23 10:11:35;;;;;;;3.27;1.83;;;;;;;13.67;100.00;99707.66;1718559;83;20225;-57
2022/09/23 10:14:17;;;;;;;4.27;2.00;;;;;;;13.62;100.00;99701.25;1692594;83;21397;-59
2022/09/23 10:16:47;;;;;;;3.00;1.90;;;;;;;13.75;100.00;99693.79;1718323;83;21128;-63
2022/09/23 10:19:27;;;;;;;2.93;2.03;;;;;;;13.79;100.00;99691.02;1718121;83;21180;-58
2022/09/23 10:21:58;;;;;;;4.10;2.40;;;;;;;13.77;100.00;99691.73;1717462;83;21031;-62
2022/09/23 10:24:29;;;;;;;5.80;2.50;;;;;;;13.79;100.00;99692.34;1718500;83;21054;-62
2022/09/23 10:27:10;;;;;;;3.50;2.30;;;;;;;13.82;100.00;99697.63;1718624;83;21962;-57
2022/09/23 10:29:48;;;;;;;4.05;2.45;;;;;;;13.86;100.00;99700.93;1718487;83;21619;-63
2022/09/23 10:32:39;;;;;;;4.30;2.70;;;;;;;13.84;100.00;99704.78;1717455;83;21252;-58
2022/09/23 10:35:13;;;;;;;5.93;3.37;;;;;;;13.84;100.00;99700.84;1718729;83;20919;-59
2022/09/23 10:37:53;;;;;;;5.67;4.23;;;;;;;13.80;100.00;99697.06;1718637;83;21310;-64
2022/09/23 10:46:44;;;;;;;4.73;3.27;;;;;;;13.70;100.00;99709.84;1718995;83;21140;-57
2022/09/23 10:49:45;;;;;;;4.97;3.12;;;;;;;13.68;100.00;99704.84;1718912;83;21037;-58
2022/09/23 10:52:34;;;;;;;4.42;3.10;;;;;;;13.61;100.00;99702.79;1718359;83;28742;-64
2022/09/23 10:55:39;;;;;;;4.77;3.20;;;;;;;13.56;100.00;99706.55;1717977;83;21456;-59
2022/09/23 10:58:23;;;;;;;3.30;2.60;;;;;;;13.56;100.00;99710.47;1718761;83;21037;-58
2022/09/23 11:01:20;;;;;;;3.97;2.60;;;;;;;13.58;100.00;99713.69;1717478;83;21244;-57
2022/09/23 11:04:12;;;;;;;4.70;2.47;;;;;;;13.63;100.00;99717.77;1709751;83;20998;-61
2022/09/23 11:07:13;;;;;;;3.00;2.03;;;;;;;13.60;100.00;99724.77;1717943;83;21410;-60
2022/09/23 11:10:20;;;;;;;3.55;2.05;;;;;;;13.65;100.00;99726.73;1709813;83;22399;-59
2022/09/23 11:13:00;;;;;;;3.50;2.33;;;;;;;13.63;100.00;99729.55;1718269;83;21058;-59
2022/09/23 11:16:04;;;;;;;2.80;2.10;;;;;;;13.53;100.00;99730.56;1717675;83;21279;-60
2022/09/23 11:19:12;;;;;;;6.00;2.30;;;;;;;13.50;100.00;99725.75;1718008;83;21097;-59
2022/09/23 11:21:55;;;;;;;3.07;1.97;;;;;;;13.58;100.00;99724.16;1717409;83;20952;-59
2022/09/23 11:25:01;;;;;;;2.87;1.67;;;;;;;13.66;100.00;99727.81;1717527;83;20942;-62
2022/09/23 11:28:25;;;;;;;4.00;2.00;;;;;;;13.88;100.00;99726.90;1708319;83;21126;-59
2022/09/23 11:31:10;;;;;;;2.27;1.57;;;;;;;14.21;100.00;99721.30;1718137;83;21099;-60
2022/09/23 11:33:51;;;;;;;3.67;1.90;;;;;;;14.58;100.00;99716.02;1718137;83;21167;-58
2022/09/23 11:36:35;;;;;;;2.83;1.57;;;;;;;14.80;100.00;99728.93;1718060;83;25536;-60
2022/09/23 11:39:36;;;;;;;3.03;1.60;;;;;;;14.98;100.00;99731.22;1659306;85;20916;-59
2022/09/23 11:42:08;;;;;;;2.72;1.77;;;;;;;15.08;100.00;99727.02;1717882;83;21077;-59
2022/09/23 11:44:36;;;;;;;2.83;1.90;;;;;;;15.26;100.00;99721.38;1718029;83;21244;-59
2022/09/23 11:47:11;;;;;;;2.58;1.55;;;;;;;15.27;100.00;99734.83;1718445;83;21075;-60
2022/09/23 11:49:48;;;;;;;2.90;1.70;;;;;;;15.29;100.00;99736.69;1659770;86;21533;-60
2022/09/23 11:52:20;;;;;;;2.73;1.70;;;;;;;15.32;100.00;99738.36;1707899;83;21048;-59
2022/09/23 11:55:17;;;;;;;3.93;1.73;;;;;;;15.45;100.00;99735.22;1718685;83;21495;-65
2022/09/23 11:58:12;;;;;;;2.27;1.30;;;;;;;15.55;100.00;99731.00;1659325;85;21322;-59
2022/09/23 12:00:45;;;;;;;2.80;1.33;;;;;;;15.81;100.00;99728.46;1698750;83;37371;-60
2022/09/23 12:03:48;;;;;;;2.47;1.30;;;;;;;16.14;100.00;99736.25;1715579;83;21061;-60
2022/09/23 12:06:38;;;;;;;2.00;1.10;;;;;;;16.26;100.00;99744.11;1715338;83;21057;-60
2022/09/23 12:09:13;;;;;;;2.73;1.40;;;;;;;16.29;100.00;99741.81;1721614;82;21026;-59
2022/09/23 12:11:55;;;;;;;2.03;1.10;;;;;;;16.30;100.00;99738.14;1721880;82;21223;-61